createdAt,value
2023-11-12T00:00:40.988Z,14.32
2023-11-12T00:03:08.166Z,10.77
2023-11-12T00:05:35.386Z,14.48
2023-11-12T00:08:02.595Z,12.50
2023-11-12T00:10:29.566Z,11.93
2023-11-12T00:12:56.665Z,12.00
2023-11-12T00:15:23.745Z,13.32
2023-11-12T00:17:50.738Z,13.75
2023-11-12T00:20:18.993Z,13.27
2023-11-12T00:22:46.191Z,9.65
2023-11-12T00:25:14.471Z,15.52
2023-11-12T00:27:42.167Z,13.38
2023-11-12T00:30:11.459Z,10.80
2023-11-12T00:32:38.765Z,14.63
2023-11-12T00:35:06.723Z,14.73
2023-11-12T00:37:34.301Z,9.95
2023-11-12T00:40:01.515Z,18.02
2023-11-12T00:42:28.697Z,14.48
2023-11-12T00:44:55.572Z,12.50
2023-11-12T00:47:22.730Z,11.90
2023-11-12T00:49:50.000Z,16.45
2023-11-12T00:52:17.778Z,17.05
2023-11-12T00:54:45.361Z,14.90
2023-11-12T00:57:12.390Z,14.48
2023-11-12T00:59:39.329Z,13.70
2023-11-12T01:02:06.604Z,16.63
2023-11-12T01:04:33.566Z,11.75
2023-11-12T01:07:00.490Z,13.52
2023-11-12T01:09:29.475Z,18.15
2023-11-12T01:11:56.464Z,17.67
2023-11-12T01:14:23.979Z,13.65
2023-11-12T01:16:51.084Z,13.90
2023-11-12T01:19:18.200Z,17.17
2023-11-12T01:21:45.160Z,17.20
2023-11-12T01:24:12.260Z,16.38
2023-11-12T01:26:39.765Z,15.10
2023-11-12T01:29:06.670Z,14.70
2023-11-12T01:31:33.668Z,17.38
2023-11-12T01:34:01.508Z,15.48
2023-11-12T01:36:28.608Z,19.92
2023-11-12T01:38:55.643Z,20.73
2023-11-12T01:41:22.562Z,15.80
2023-11-12T01:43:49.443Z,16.15
2023-11-12T01:46:17.498Z,17.02
2023-11-12T01:48:44.653Z,16.35
2023-11-12T01:51:13.219Z,16.38
2023-11-12T01:53:41.295Z,16.85
2023-11-12T01:56:13.624Z,19.42
2023-11-12T01:58:41.926Z,19.17
2023-11-12T02:01:09.792Z,15.18
2023-11-12T02:03:38.367Z,20.02
2023-11-12T02:06:06.665Z,17.33
2023-11-12T02:08:36.781Z,19.27
2023-11-12T02:11:08.844Z,19.80
2023-11-12T02:13:42.718Z,18.63
2023-11-12T02:16:11.474Z,20.63
2023-11-12T02:18:38.519Z,23.83
2023-11-12T02:21:06.589Z,23.65
2023-11-12T02:23:39.205Z,19.73
2023-11-12T02:26:07.501Z,20.92
2023-11-12T02:28:34.511Z,21.83
2023-11-12T02:31:01.604Z,21.95
2023-11-12T02:33:29.217Z,22.77
2023-11-12T02:35:57.376Z,24.70
2023-11-12T02:38:25.800Z,22.17
2023-11-12T02:40:53.143Z,19.42
2023-11-12T02:43:21.224Z,20.73
2023-11-12T02:45:48.899Z,23.85
2023-11-12T02:48:16.271Z,21.58
2023-11-12T02:50:44.321Z,24.27
2023-11-12T02:53:13.302Z,23.23
2023-11-12T02:55:40.727Z,21.38
2023-11-12T02:58:07.640Z,22.17
2023-11-12T03:00:34.838Z,24.17
2023-11-12T03:03:03.321Z,20.00
2023-11-12T03:05:32.539Z,21.63
2023-11-12T03:07:59.729Z,22.52
2023-11-12T03:10:26.955Z,24.05
2023-11-12T03:12:57.708Z,23.58
2023-11-12T03:15:27.595Z,23.55
2023-11-12T03:17:54.638Z,24.02
2023-11-12T03:20:21.807Z,24.10
2023-11-12T03:22:49.002Z,22.13
2023-11-12T03:25:16.111Z,25.50
2023-11-12T03:27:43.348Z,21.80
2023-11-12T03:30:14.332Z,20.83
2023-11-12T03:32:41.675Z,26.45
2023-11-12T03:35:09.591Z,22.55
2023-11-12T03:37:38.741Z,21.88
2023-11-12T03:40:06.316Z,24.80
2023-11-12T03:42:33.345Z,25.63
2023-11-12T03:45:00.496Z,31.08
2023-11-12T03:47:27.532Z,26.95
2023-11-12T03:49:54.453Z,26.88
2023-11-12T03:52:21.742Z,28.52
2023-11-12T03:54:48.638Z,29.63
2023-11-12T03:57:15.774Z,28.10
2023-11-12T03:59:42.967Z,37.55
2023-11-12T04:02:10.068Z,31.10
2023-11-12T04:04:37.220Z,32.15
2023-11-12T04:07:04.714Z,33.30
2023-11-12T04:09:31.829Z,26.42
2023-11-12T04:11:59.102Z,30.65
2023-11-12T04:14:26.181Z,30.48
2023-11-12T04:16:53.206Z,31.10
2023-11-12T04:19:20.125Z,31.33
2023-11-12T04:21:48.568Z,34.40
2023-11-12T04:24:15.860Z,30.05
2023-11-12T04:26:42.957Z,33.65
2023-11-12T04:29:10.253Z,31.83
2023-11-12T04:31:37.901Z,33.25
2023-11-12T04:34:05.098Z,30.45
2023-11-12T04:36:32.659Z,34.65
2023-11-12T04:38:59.992Z,38.42
2023-11-12T04:41:28.377Z,36.25
2023-11-12T04:43:55.509Z,36.95
2023-11-12T04:46:22.964Z,35.75
2023-11-12T04:48:50.229Z,39.05
2023-11-12T04:51:21.091Z,43.92
2023-11-12T04:53:49.361Z,37.75
2023-11-12T04:56:16.290Z,36.20
2023-11-12T04:58:43.439Z,34.63
2023-11-12T05:01:10.358Z,31.55
2023-11-12T05:03:37.432Z,38.03
2023-11-12T05:06:05.413Z,35.92
2023-11-12T05:08:32.466Z,37.20
2023-11-12T05:10:59.395Z,49.10
2023-11-12T05:13:26.920Z,39.63
2023-11-12T05:15:54.257Z,43.97
2023-11-12T05:18:22.586Z,44.90
2023-11-12T05:20:49.747Z,43.05
2023-11-12T05:23:17.739Z,47.80
2023-11-12T05:25:46.417Z,44.67
2023-11-12T05:28:13.553Z,48.50
2023-11-12T05:30:40.643Z,44.55
2023-11-12T05:33:07.661Z,52.08
2023-11-12T05:35:34.575Z,46.75
2023-11-12T05:38:01.520Z,43.60
2023-11-12T05:40:30.362Z,42.05
2023-11-12T05:42:57.938Z,43.65
2023-11-12T05:45:24.834Z,52.30
2023-11-12T05:47:51.802Z,51.65
2023-11-12T05:50:18.821Z,47.88
2023-11-12T05:52:45.769Z,43.78
2023-11-12T05:55:12.769Z,46.00
2023-11-12T05:57:39.844Z,52.60
2023-11-12T06:00:08.985Z,47.40
2023-11-12T06:02:39.612Z,66.30
2023-11-12T06:05:07.639Z,57.70
2023-11-12T06:07:34.727Z,60.03
2023-11-12T06:10:02.117Z,59.13
2023-11-12T06:12:29.081Z,59.40
2023-11-12T06:14:56.012Z,66.18
2023-11-12T06:17:22.939Z,64.75
2023-11-12T06:19:50.137Z,54.95
2023-11-12T06:22:17.055Z,59.97
2023-11-12T06:24:44.272Z,62.15
2023-11-12T06:27:12.010Z,60.88
2023-11-12T06:29:39.377Z,66.85
2023-11-12T06:32:07.739Z,60.58
2023-11-12T06:34:36.234Z,60.40
2023-11-12T06:37:04.294Z,63.15
2023-11-12T06:39:32.464Z,56.20
2023-11-12T06:42:00.069Z,64.25
2023-11-12T06:44:27.337Z,60.30
2023-11-12T06:46:54.408Z,61.80
2023-11-12T06:49:21.398Z,55.05
2023-11-12T06:51:48.337Z,57.33
2023-11-12T06:54:16.222Z,57.00
2023-11-12T06:56:43.189Z,58.55
2023-11-12T06:59:10.164Z,58.58
2023-11-12T07:01:38.201Z,61.72
2023-11-12T07:04:06.021Z,58.08
2023-11-12T07:06:33.385Z,63.75
2023-11-12T07:09:00.530Z,141.32
2023-11-12T07:11:27.384Z,185.63
2023-11-12T07:13:54.265Z,179.77
2023-11-12T07:16:21.823Z,153.63
2023-11-12T07:18:54.187Z,146.70
2023-11-12T07:21:30.037Z,135.85
2023-11-12T07:23:58.064Z,120.18
2023-11-12T07:26:25.938Z,123.72
2023-11-12T07:28:53.663Z,95.85
2023-11-12T07:31:23.276Z,109.50
2023-11-12T07:33:50.886Z,101.97
2023-11-12T07:36:18.210Z,87.60
2023-11-12T07:38:45.486Z,62.10
2023-11-12T07:41:12.329Z,60.25
2023-11-12T07:43:41.969Z,69.70
2023-11-12T07:46:09.142Z,69.13
2023-11-12T07:48:37.015Z,78.15
2023-11-12T07:51:04.227Z,72.70
2023-11-12T07:53:31.226Z,80.97
2023-11-12T07:55:58.176Z,90.20
2023-11-12T07:58:25.445Z,90.90
2023-11-12T08:00:52.521Z,75.55
2023-11-12T08:03:21.222Z,60.90
2023-11-12T08:05:49.650Z,68.10
2023-11-12T08:08:16.621Z,60.97
2023-11-12T08:10:43.586Z,59.83
2023-11-12T08:13:10.622Z,56.00
2023-11-12T08:15:37.687Z,60.13
2023-11-12T08:18:07.170Z,59.22
2023-11-12T08:20:35.610Z,52.08
2023-11-12T08:23:03.267Z,53.75
2023-11-12T08:25:30.424Z,59.45
2023-11-12T08:28:00.184Z,56.60
2023-11-12T08:30:27.284Z,55.25
2023-11-12T08:32:54.948Z,58.92
2023-11-12T08:35:21.928Z,55.13
2023-11-12T08:37:49.011Z,53.85
2023-11-12T08:40:19.256Z,58.15
2023-11-12T08:42:47.156Z,56.72
2023-11-12T08:45:15.002Z,58.88
2023-11-12T08:47:41.990Z,53.15
2023-11-12T08:50:09.069Z,52.30
2023-11-12T08:52:37.926Z,56.05
2023-11-12T08:55:07.263Z,48.33
2023-11-12T08:57:35.620Z,48.88
2023-11-12T09:00:06.137Z,51.72
2023-11-12T09:02:34.266Z,50.47
2023-11-12T09:05:02.576Z,52.78
2023-11-12T09:07:29.744Z,61.13
2023-11-12T09:09:56.744Z,51.45
2023-11-12T09:12:24.578Z,48.50
2023-11-12T09:14:51.657Z,50.70
2023-11-12T09:17:18.945Z,53.50
2023-11-12T09:19:46.564Z,52.78
2023-11-12T09:22:13.648Z,53.70
2023-11-12T09:24:55.532Z,45.05
2023-11-12T09:27:31.821Z,49.35
2023-11-12T09:29:58.758Z,48.42
2023-11-12T09:32:25.774Z,50.47
2023-11-12T09:34:52.753Z,52.30
2023-11-12T09:37:19.769Z,51.25
2023-11-12T09:39:46.679Z,47.00
2023-11-12T09:42:21.093Z,61.28
2023-11-12T09:44:49.281Z,66.60
2023-11-12T09:47:26.357Z,52.30
2023-11-12T09:49:55.021Z,45.85
2023-11-12T09:52:24.623Z,56.22
2023-11-12T09:54:53.201Z,51.97
2023-11-12T09:57:20.214Z,46.55
2023-11-12T09:59:47.143Z,42.75
2023-11-12T10:02:14.345Z,42.50
2023-11-12T10:04:44.943Z,40.05
2023-11-12T10:07:12.838Z,37.00
2023-11-12T10:09:40.106Z,40.42
2023-11-12T10:12:07.784Z,38.92
2023-11-12T10:14:35.982Z,41.47
2023-11-12T10:17:12.402Z,33.63
2023-11-12T10:19:39.361Z,32.88
2023-11-12T10:22:08.390Z,28.98
2023-11-12T10:24:46.035Z,33.33
2023-11-12T10:27:15.411Z,29.30
2023-11-12T10:29:44.491Z,27.90
2023-11-12T10:32:28.368Z,29.50
2023-11-12T10:34:56.471Z,26.75
2023-11-12T10:37:23.484Z,32.13
2023-11-12T10:39:50.993Z,32.10
2023-11-12T10:42:27.892Z,28.88
2023-11-12T10:44:57.888Z,26.00
2023-11-12T10:47:30.773Z,29.40
2023-11-12T10:49:58.746Z,28.10
2023-11-12T10:52:28.148Z,32.33
2023-11-12T10:54:59.619Z,35.63
2023-11-12T10:57:27.267Z,27.98
2023-11-12T10:59:55.910Z,43.63
2023-11-12T11:02:29.579Z,26.13
2023-11-12T11:04:57.598Z,27.10
2023-11-12T11:07:25.014Z,24.90
2023-11-12T11:09:52.861Z,24.60
2023-11-12T11:12:20.630Z,22.73
2023-11-12T11:14:47.820Z,20.80
2023-11-12T11:17:39.047Z,23.08
2023-11-12T11:20:06.570Z,24.73
2023-11-12T11:22:33.747Z,24.98
2023-11-12T11:25:28.427Z,26.65
2023-11-12T11:28:20.945Z,24.40
2023-11-12T11:31:13.345Z,19.27
2023-11-12T11:33:48.518Z,21.10
2023-11-12T11:36:18.124Z,24.08
2023-11-12T11:39:04.938Z,19.25
2023-11-12T11:41:55.546Z,19.58
2023-11-12T11:44:39.100Z,22.10
2023-11-12T11:47:16.858Z,21.77
2023-11-12T11:49:48.651Z,20.73
2023-11-12T11:52:21.720Z,18.77
2023-11-12T11:55:01.197Z,17.35
2023-11-12T11:57:29.136Z,15.27
2023-11-12T11:59:57.306Z,20.63
2023-11-12T12:02:25.609Z,23.67
2023-11-12T12:04:55.607Z,17.50
2023-11-12T12:07:32.619Z,21.60
2023-11-12T12:10:01.797Z,20.17
2023-11-12T12:12:29.692Z,18.00
2023-11-12T12:14:57.255Z,18.98
2023-11-12T12:17:24.740Z,19.38
2023-11-12T12:19:53.509Z,19.88
2023-11-12T12:22:28.123Z,15.73
2023-11-12T12:24:57.835Z,17.05
2023-11-12T12:27:26.020Z,17.75
2023-11-12T12:29:54.228Z,21.10
2023-11-12T12:32:22.465Z,18.15
2023-11-12T12:35:01.806Z,20.77
2023-11-12T12:37:31.976Z,17.08
2023-11-12T12:40:12.247Z,18.13
2023-11-12T12:42:40.007Z,19.45
2023-11-12T12:45:17.278Z,17.00
2023-11-12T12:47:45.328Z,19.20
2023-11-12T12:50:26.406Z,18.85
2023-11-12T12:53:15.292Z,17.55
2023-11-12T12:55:47.438Z,17.50
2023-11-12T12:58:15.467Z,17.58
2023-11-12T13:00:46.719Z,16.17
2023-11-12T13:03:31.652Z,18.65
2023-11-12T13:05:59.238Z,19.60
2023-11-12T13:08:26.381Z,21.85
2023-11-12T13:10:55.512Z,20.45
2023-11-12T13:13:23.037Z,18.90
2023-11-12T13:15:50.427Z,18.17
2023-11-12T13:18:19.134Z,21.60
2023-11-12T13:20:46.873Z,22.27
2023-11-12T13:23:14.933Z,19.75
2023-11-12T13:25:43.308Z,18.58
2023-11-12T13:28:13.122Z,23.83
2023-11-12T13:30:40.286Z,17.73
2023-11-12T13:33:08.580Z,20.90
2023-11-12T13:35:35.863Z,22.83
2023-11-12T13:38:02.879Z,20.08
2023-11-12T13:40:31.720Z,24.55
2023-11-12T13:42:58.743Z,26.35
2023-11-12T13:45:25.948Z,24.90
2023-11-12T13:47:55.459Z,24.48
2023-11-12T13:50:26.269Z,27.65
2023-11-12T13:52:59.378Z,25.00
2023-11-12T13:55:27.034Z,26.58
2023-11-12T13:57:54.111Z,27.08
2023-11-12T14:00:21.219Z,32.45
2023-11-12T14:02:48.129Z,26.15
2023-11-12T14:05:15.090Z,31.38
2023-11-12T14:07:42.106Z,27.40
2023-11-12T14:10:11.894Z,25.35
2023-11-12T14:12:39.740Z,26.05
2023-11-12T14:15:10.852Z,25.17
2023-11-12T14:17:38.105Z,26.80
2023-11-12T14:20:07.933Z,23.15
2023-11-12T14:22:36.053Z,23.50
2023-11-12T14:25:05.918Z,20.70
2023-11-12T14:27:32.880Z,23.38
2023-11-12T14:29:59.864Z,17.60
2023-11-12T14:32:26.903Z,24.50
2023-11-12T14:34:53.837Z,25.20
2023-11-12T14:37:22.888Z,20.90
2023-11-12T14:39:50.589Z,19.05
2023-11-12T14:42:17.651Z,20.70
2023-11-12T14:44:44.712Z,21.45
2023-11-12T14:47:11.697Z,22.58
2023-11-12T14:49:38.610Z,21.73
2023-11-12T14:52:06.319Z,20.15
2023-11-12T14:54:33.993Z,20.20
2023-11-12T14:57:00.998Z,23.10
2023-11-12T14:59:28.843Z,20.33
2023-11-12T15:01:55.932Z,22.70
2023-11-12T15:04:23.354Z,23.45
2023-11-12T15:06:52.919Z,19.30
2023-11-12T15:09:21.775Z,20.02
2023-11-12T15:11:48.812Z,21.98
2023-11-12T15:14:16.417Z,25.25
2023-11-12T15:16:44.128Z,19.05
2023-11-12T15:19:12.217Z,18.73
2023-11-12T15:21:45.820Z,19.13
2023-11-12T15:24:12.824Z,21.15
2023-11-12T15:26:40.329Z,23.00
2023-11-12T15:29:07.582Z,20.90
2023-11-12T15:31:36.530Z,19.33
2023-11-12T15:34:05.966Z,18.23
2023-11-12T15:36:34.627Z,17.00
2023-11-12T15:39:02.326Z,16.88
2023-11-12T15:41:29.868Z,20.73
2023-11-12T15:43:56.863Z,18.70
2023-11-12T15:46:24.175Z,18.92
2023-11-12T15:48:51.118Z,17.77
2023-11-12T15:51:18.502Z,17.23
2023-11-12T15:53:46.037Z,16.08
2023-11-12T15:56:16.209Z,18.77
2023-11-12T15:58:43.369Z,15.13
2023-11-12T16:01:10.407Z,15.50
2023-11-12T16:03:38.035Z,18.58
2023-11-12T16:06:06.555Z,18.02
2023-11-12T16:08:33.683Z,18.67
2023-11-12T16:11:00.693Z,17.90
2023-11-12T16:13:29.147Z,17.35
2023-11-12T16:15:56.122Z,17.65
2023-11-12T16:18:23.180Z,20.70
2023-11-12T16:20:50.898Z,20.67
2023-11-12T16:23:18.388Z,18.10
2023-11-12T16:25:45.342Z,19.17
2023-11-12T16:28:12.884Z,18.85
2023-11-12T16:30:39.839Z,18.08
2023-11-12T16:33:10.237Z,26.38
2023-11-12T16:35:38.027Z,20.75
2023-11-12T16:38:06.505Z,21.52
2023-11-12T16:40:37.200Z,22.60
2023-11-12T16:43:04.526Z,18.73
2023-11-12T16:45:31.612Z,18.33
2023-11-12T16:47:59.561Z,16.08
2023-11-12T16:50:27.232Z,19.45
2023-11-12T16:52:55.496Z,28.92
2023-11-12T16:55:22.821Z,20.45
2023-11-12T16:57:50.755Z,22.83
2023-11-12T17:00:19.515Z,18.55
2023-11-12T17:02:46.744Z,14.25
2023-11-12T17:05:16.030Z,15.75
2023-11-12T17:07:43.061Z,18.73
2023-11-12T17:10:10.821Z,14.63
2023-11-12T17:12:37.928Z,16.20
2023-11-12T17:15:05.259Z,15.32
2023-11-12T17:17:32.343Z,15.02
2023-11-12T17:20:00.314Z,17.70
2023-11-12T17:22:27.848Z,18.02
2023-11-12T17:24:54.850Z,20.55
2023-11-12T17:27:23.695Z,13.48
2023-11-12T17:29:51.124Z,16.80
2023-11-12T17:32:18.680Z,14.80
2023-11-12T17:34:45.631Z,12.02
2023-11-12T17:37:12.739Z,12.70
2023-11-12T17:39:39.866Z,11.85
2023-11-12T17:42:07.246Z,21.48
2023-11-12T17:44:35.924Z,17.23
2023-11-12T17:47:03.006Z,16.80
2023-11-12T17:49:30.164Z,15.57
2023-11-12T17:51:57.135Z,16.90
2023-11-12T17:54:24.214Z,16.55
2023-11-12T17:56:51.495Z,14.52
2023-11-12T17:59:18.430Z,12.50
2023-11-12T18:01:46.714Z,17.80
2023-11-12T18:04:14.489Z,15.38
2023-11-12T18:06:46.292Z,14.38
2023-11-12T18:09:16.511Z,13.63
2023-11-12T18:11:45.967Z,16.48
2023-11-12T18:14:16.306Z,14.98
2023-11-12T18:16:46.158Z,18.75
2023-11-12T18:19:16.359Z,17.92
2023-11-12T18:21:43.822Z,19.17
2023-11-12T18:24:11.095Z,16.52
2023-11-12T18:26:42.503Z,18.30
2023-11-12T18:29:13.162Z,15.77
2023-11-12T18:31:40.971Z,13.60
2023-11-12T18:34:10.404Z,15.82
2023-11-12T18:36:37.582Z,15.23
2023-11-12T18:39:04.485Z,13.13
2023-11-12T18:41:32.322Z,14.70
2023-11-12T18:44:04.428Z,15.85
2023-11-12T18:46:31.465Z,11.25
2023-11-12T18:48:58.449Z,14.93
2023-11-12T18:51:25.633Z,14.48
2023-11-12T18:53:58.787Z,15.70
2023-11-12T18:56:26.541Z,15.18
2023-11-12T18:58:56.978Z,16.08
2023-11-12T19:01:25.041Z,18.08
2023-11-12T19:03:52.482Z,11.45
2023-11-12T19:06:19.563Z,12.27
2023-11-12T19:08:46.950Z,16.35
2023-11-12T19:11:14.220Z,13.35
2023-11-12T19:13:41.643Z,11.45
2023-11-12T19:16:10.444Z,12.45
2023-11-12T19:18:38.727Z,11.25
2023-11-12T19:21:05.975Z,12.57
2023-11-12T19:23:32.886Z,12.52
2023-11-12T19:26:00.014Z,13.88
2023-11-12T19:28:26.902Z,12.35
2023-11-12T19:30:53.991Z,11.20
2023-11-12T19:33:21.004Z,12.82
2023-11-12T19:35:48.098Z,11.30
2023-11-12T19:38:16.519Z,16.02
2023-11-12T19:40:44.881Z,14.00
2023-11-12T19:43:12.858Z,17.33
2023-11-12T19:45:40.574Z,14.02
2023-11-12T19:48:07.678Z,12.63
2023-11-12T19:50:35.020Z,12.10
2023-11-12T19:53:02.485Z,12.30
2023-11-12T19:55:31.076Z,16.88
2023-11-12T19:57:58.038Z,14.73
2023-11-12T20:00:25.037Z,13.50
2023-11-12T20:02:52.795Z,13.65
2023-11-12T20:05:20.452Z,14.75
2023-11-12T20:07:47.418Z,17.27
2023-11-12T20:10:14.680Z,14.15
2023-11-12T20:12:41.698Z,18.00
2023-11-12T20:15:09.338Z,16.80
2023-11-12T20:17:37.444Z,17.60
2023-11-12T20:20:05.075Z,15.95
2023-11-12T20:22:32.816Z,12.00
2023-11-12T20:24:59.846Z,12.13
2023-11-12T20:27:26.780Z,12.82
2023-11-12T20:29:57.037Z,14.63
2023-11-12T20:32:24.122Z,14.82
2023-11-12T20:34:51.581Z,15.35
2023-11-12T20:37:20.169Z,13.80
2023-11-12T20:39:47.431Z,15.02
2023-11-12T20:42:14.870Z,13.15
2023-11-12T20:44:42.360Z,16.17
2023-11-12T20:47:12.378Z,13.73
2023-11-12T20:49:44.441Z,15.45
2023-11-12T20:52:11.714Z,13.20
2023-11-12T20:54:39.163Z,15.00
2023-11-12T20:57:08.961Z,15.95
2023-11-12T20:59:36.023Z,13.07
2023-11-12T21:02:10.341Z,15.88
2023-11-12T21:04:45.633Z,18.95
2023-11-12T21:07:13.817Z,16.02
2023-11-12T21:09:41.048Z,14.57
2023-11-12T21:12:09.161Z,15.48
2023-11-12T21:14:36.170Z,15.32
2023-11-12T21:17:03.136Z,16.45
2023-11-12T21:19:30.133Z,15.98
2023-11-12T21:21:57.404Z,20.02
2023-11-12T21:24:24.460Z,17.88
2023-11-12T21:26:51.870Z,16.55
2023-11-12T21:29:21.107Z,19.25
2023-11-12T21:31:49.518Z,16.10
2023-11-12T21:34:16.470Z,14.65
2023-11-12T21:36:43.530Z,15.38
2023-11-12T21:39:12.525Z,17.55
2023-11-12T21:41:39.719Z,17.55
2023-11-12T21:44:09.719Z,17.33
2023-11-12T21:46:36.877Z,16.67
2023-11-12T21:49:03.981Z,15.95
2023-11-12T21:51:31.637Z,15.20
2023-11-12T21:53:58.600Z,15.20
2023-11-12T21:56:25.615Z,14.90
2023-11-12T21:58:52.816Z,16.50
2023-11-12T22:01:20.314Z,17.73
2023-11-12T22:03:47.466Z,18.33
2023-11-12T22:06:14.724Z,17.98
2023-11-12T22:08:41.667Z,15.40
2023-11-12T22:11:08.646Z,17.15
2023-11-12T22:13:35.548Z,17.90
2023-11-12T22:16:02.537Z,15.88
2023-11-12T22:18:29.581Z,16.55
2023-11-12T22:20:57.228Z,17.33
2023-11-12T22:23:24.126Z,15.27
2023-11-12T22:25:51.251Z,16.60
2023-11-12T22:28:18.318Z,16.70
2023-11-12T22:30:46.532Z,18.38
2023-11-12T22:33:13.683Z,17.88
2023-11-12T22:35:40.873Z,18.77
2023-11-12T22:38:08.164Z,17.17
2023-11-12T22:40:35.231Z,20.70
2023-11-12T22:43:03.022Z,20.85
2023-11-12T22:45:30.003Z,18.75
2023-11-12T22:47:57.492Z,20.45
2023-11-12T22:50:26.007Z,21.15
2023-11-12T22:52:53.435Z,22.42
2023-11-12T22:55:20.814Z,21.20
2023-11-12T22:57:48.029Z,20.65
2023-11-12T23:00:40.493Z,19.13
2023-11-12T23:03:15.118Z,21.70
2023-11-12T23:05:43.767Z,22.13
2023-11-12T23:08:11.417Z,21.98
2023-11-12T23:10:40.333Z,21.63
2023-11-12T23:13:10.001Z,19.77
2023-11-12T23:15:37.114Z,25.05
2023-11-12T23:18:07.083Z,26.63
2023-11-12T23:20:35.715Z,21.10
2023-11-12T23:23:03.361Z,22.75
2023-11-12T23:25:31.010Z,23.13
2023-11-12T23:27:59.113Z,24.58
2023-11-12T23:30:28.964Z,25.88
2023-11-12T23:32:56.306Z,21.17
2023-11-12T23:35:23.162Z,32.95
2023-11-12T23:37:51.188Z,26.77
2023-11-12T23:40:18.331Z,27.40
2023-11-12T23:42:45.723Z,27.92
2023-11-12T23:45:13.156Z,25.95
2023-11-12T23:47:40.899Z,29.27
2023-11-12T23:50:08.912Z,25.60
2023-11-12T23:52:35.872Z,24.05
2023-11-12T23:55:04.984Z,29.75
2023-11-12T23:57:32.395Z,24.45
